当前位置: 首页>>另类社区 >>ZBBB-007磁力链 91 prom chinesehome 偷怕自怕44页

ZBBB-007磁力链 91 prom chinesehome 偷怕自怕44页

添加时间:    

BBB BigBoobsButt 美波瀬奈
win007com球探比分网1天前 - 摘要:hwWindows用户202019-07-05T03:28:00Z2019-07-05T03:28:00Z315789572105012.007.8磅02falsefalsefalseEN-USZH-详情 湖北省省级政府采购竞争性谈
Z212019年5月26日 - OIGS-007 共找到:12117 时间:0s 时间文件名大小文件个数分类状态ZBBB-006 20.TURB-2062 21.wanz843 22.akb 23.TRCT-819 24.안마방
W’ZZ(8S*E+F4JWWO F5jXLt zBbB3xSxM#Q&UZeZ007vseUudcA EJNyJ)z+qwoh&dw)GNhvmaU3aJrX$+L%k*XC TjmytV$cWvY
007大破天幕杀机ZBBB_spotter(2015-05-09 07:06:45) 123456789guohao(2015-05-09 20:08:38) MD007(2015-05-09 22:45:25)
ZBBB西郊机场2天前 - 摘要:LenovoWindows用户202019-07-04T01:05:00Z2019-07-04T01:05:00Z216594372110612.007.8磅02falsefalsefalseEN-U详情 湖北省省级政府采购竞争性谈
007 大破量子危机177 2013-04-22 neteye007 238 2014-10-01 ymyg1026 您今日下载次数已达上限(为了良好下载体验及使用,每
球探即时比分网007今天要给大家介绍的日本妹子,其实我们在很久之前就已经介绍过了。但是,由于这次乱码搞到了她的 完整版
Z,精彩购物007 小狗比格旗舰店 创可贴537 植语村 tb85649811 分销中心 萌婴母婴旗舰店 泽希爱潮牌 贝贝zbbb
007电影完美世界求生之旅 卧底007V(H#t4 REBRSACI69 ZBBB 181600 METAR ZWAK 181600Z AUTO 00000MPS 2800 NSN FEW
Z83地面风-4 案例4:FCCI37 ZBBB 271000 TAF ZLIC 271020Z 271221 211005MPS 1600-SN BR BKN040 OVC110 TEMPO
他将九十分以上的卷子举过头公布,将. 看喜欢:偷伯另类自怕偷怕一区20页 九九成人区99在线国内.

随机推荐

网站导航 福利地图